Hurshtown, Indiana
Current Conditions -  °F | °C
As of 8:35 AM on Thursday 23 Oct 2014 (Local Time) from KGWB Reporting Station
Moderate Fog Moderate Fog  
Wind Chill: 30°   Ceiling: Unl
Heat Index: 30°   Visibility: 0mi
Dew Point: 28°   Wind: 0mph
Humidity: 93%   Direction: NA
Pressure: 30.25"   Gusts: NA
Location:  41.268°N, 84.9156°W
Report Text: KGWB 231235Z AUTO 00000KT M1/4SM FZFG VV000 M01/M02 A3025 RMK AO2
Loading
Personal Weather Stations






























Interactive Weather Map
Tropical Storm Tracking
New forecast layout! Learn more

10-Day Weather Forecast

Advertisements
Track Severe Weather on mobile